sensor_id;sensor_type;location;lat;lon;timestamp;temperature;humidity
52113;DHT22;38109;49.488;31.988;2023-06-14T00:01:35;17.40;74.50
52113;DHT22;38109;49.488;31.988;2023-06-14T00:04:01;17.40;74.50
52113;DHT22;38109;49.488;31.988;2023-06-14T00:06:28;17.30;74.50
52113;DHT22;38109;49.488;31.988;2023-06-14T00:08:54;17.30;74.50
52113;DHT22;38109;49.488;31.988;2023-06-14T00:11:20;17.30;74.60
52113;DHT22;38109;49.488;31.988;2023-06-14T00:13:46;17.20;74.50
52113;DHT22;38109;49.488;31.988;2023-06-14T00:16:12;17.20;74.60
52113;DHT22;38109;49.488;31.988;2023-06-14T00:18:38;17.20;74.60
52113;DHT22;38109;49.488;31.988;2023-06-14T00:21:04;17.10;74.60
52113;DHT22;38109;49.488;31.988;2023-06-14T00:23:30;17.10;74.60
52113;DHT22;38109;49.488;31.988;2023-06-14T00:25:56;17.00;74.60
52113;DHT22;38109;49.488;31.988;2023-06-14T00:28:21;17.00;74.70
52113;DHT22;38109;49.488;31.988;2023-06-14T00:30:47;17.00;74.80
52113;DHT22;38109;49.488;31.988;2023-06-14T00:33:13;17.00;74.80
52113;DHT22;38109;49.488;31.988;2023-06-14T00:35:39;16.90;74.80
52113;DHT22;38109;49.488;31.988;2023-06-14T00:38:04;16.90;74.80
52113;DHT22;38109;49.488;31.988;2023-06-14T00:40:30;16.90;74.90
52113;DHT22;38109;49.488;31.988;2023-06-14T00:42:56;16.80;74.90
52113;DHT22;38109;49.488;31.988;2023-06-14T00:45:22;16.80;75.00
52113;DHT22;38109;49.488;31.988;2023-06-14T00:47:48;16.70;74.90
52113;DHT22;38109;49.488;31.988;2023-06-14T00:50:17;16.70;75.10
52113;DHT22;38109;49.488;31.988;2023-06-14T00:52:43;16.70;75.10
52113;DHT22;38109;49.488;31.988;2023-06-14T00:55:09;16.70;75.10
52113;DHT22;38109;49.488;31.988;2023-06-14T00:57:35;16.60;75.10
52113;DHT22;38109;49.488;31.988;2023-06-14T01:00:03;16.60;75.20
52113;DHT22;38109;49.488;31.988;2023-06-14T01:02:35;16.50;75.10
52113;DHT22;38109;49.488;31.988;2023-06-14T01:05:02;16.50;75.20
52113;DHT22;38109;49.488;31.988;2023-06-14T01:07:41;16.50;75.30
52113;DHT22;38109;49.488;31.988;2023-06-14T01:10:35;16.50;75.40
52113;DHT22;38109;49.488;31.988;2023-06-14T01:13:29;16.40;75.30
52113;DHT22;38109;49.488;31.988;2023-06-14T01:15:59;16.40;75.30
52113;DHT22;38109;49.488;31.988;2023-06-14T01:18:26;16.30;75.40
52113;DHT22;38109;49.488;31.988;2023-06-14T01:20:53;16.30;75.50
52113;DHT22;38109;49.488;31.988;2023-06-14T01:23:21;16.30;75.60
52113;DHT22;38109;49.488;31.988;2023-06-14T01:25:48;16.20;75.60
52113;DHT22;38109;49.488;31.988;2023-06-14T01:28:19;16.20;75.70
52113;DHT22;38109;49.488;31.988;2023-06-14T01:30:48;16.20;75.70
52113;DHT22;38109;49.488;31.988;2023-06-14T01:33:17;16.20;75.80
52113;DHT22;38109;49.488;31.988;2023-06-14T01:35:47;16.20;75.90
52113;DHT22;38109;49.488;31.988;2023-06-14T01:38:14;16.20;75.90
52113;DHT22;38109;49.488;31.988;2023-06-14T01:40:42;16.20;75.90
52113;DHT22;38109;49.488;31.988;2023-06-14T01:43:08;16.10;75.90
52113;DHT22;38109;49.488;31.988;2023-06-14T01:45:35;16.10;75.90
52113;DHT22;38109;49.488;31.988;2023-06-14T01:48:02;16.10;76.00
52113;DHT22;38109;49.488;31.988;2023-06-14T01:50:29;16.10;76.10
52113;DHT22;38109;49.488;31.988;2023-06-14T01:52:56;16.10;76.20
52113;DHT22;38109;49.488;31.988;2023-06-14T01:55:21;16.10;76.20
52113;DHT22;38109;49.488;31.988;2023-06-14T01:57:47;16.00;76.20
52113;DHT22;38109;49.488;31.988;2023-06-14T02:00:14;16.00;76.20
52113;DHT22;38109;49.488;31.988;2023-06-14T02:02:41;16.00;76.20
52113;DHT22;38109;49.488;31.988;2023-06-14T02:05:07;16.00;76.30
52113;DHT22;38109;49.488;31.988;2023-06-14T02:07:33;16.00;76.40
52113;DHT22;38109;49.488;31.988;2023-06-14T02:09:59;16.00;76.40
52113;DHT22;38109;49.488;31.988;2023-06-14T02:12:25;16.00;76.50
52113;DHT22;38109;49.488;31.988;2023-06-14T02:14:51;16.00;76.50
52113;DHT22;38109;49.488;31.988;2023-06-14T02:17:16;16.00;76.50
52113;DHT22;38109;49.488;31.988;2023-06-14T02:19:42;16.00;76.60
52113;DHT22;38109;49.488;31.988;2023-06-14T02:22:08;15.90;76.60
52113;DHT22;38109;49.488;31.988;2023-06-14T02:24:34;16.00;76.70
52113;DHT22;38109;49.488;31.988;2023-06-14T02:27:01;15.90;76.60
52113;DHT22;38109;49.488;31.988;2023-06-14T02:29:27;15.90;76.70
52113;DHT22;38109;49.488;31.988;2023-06-14T02:31:52;15.90;76.70
52113;DHT22;38109;49.488;31.988;2023-06-14T02:34:18;15.90;76.80
52113;DHT22;38109;49.488;31.988;2023-06-14T02:36:45;15.90;76.90
52113;DHT22;38109;49.488;31.988;2023-06-14T02:39:11;16.00;77.00
52113;DHT22;38109;49.488;31.988;2023-06-14T02:41:37;16.00;77.10
52113;DHT22;38109;49.488;31.988;2023-06-14T02:44:03;16.00;77.30
52113;DHT22;38109;49.488;31.988;2023-06-14T02:46:28;16.10;77.40
52113;DHT22;38109;49.488;31.988;2023-06-14T02:48:54;16.10;77.90
52113;DHT22;38109;49.488;31.988;2023-06-14T02:51:19;16.10;78.00
52113;DHT22;38109;49.488;31.988;2023-06-14T02:53:45;16.20;78.10
52113;DHT22;38109;49.488;31.988;2023-06-14T02:56:11;16.20;78.10
52113;DHT22;38109;49.488;31.988;2023-06-14T02:58:37;16.30;78.30
52113;DHT22;38109;49.488;31.988;2023-06-14T03:01:04;16.30;78.40
52113;DHT22;38109;49.488;31.988;2023-06-14T03:03:31;16.40;78.50
52113;DHT22;38109;49.488;31.988;2023-06-14T03:05:57;16.40;79.00
52113;DHT22;38109;49.488;31.988;2023-06-14T03:08:22;16.40;78.50
52113;DHT22;38109;49.488;31.988;2023-06-14T03:10:53;16.50;78.50
52113;DHT22;38109;49.488;31.988;2023-06-14T03:13:19;16.50;78.40
52113;DHT22;38109;49.488;31.988;2023-06-14T03:15:47;16.50;78.60
52113;DHT22;38109;49.488;31.988;2023-06-14T03:18:16;16.50;78.40
52113;DHT22;38109;49.488;31.988;2023-06-14T03:20:41;16.60;78.50
52113;DHT22;38109;49.488;31.988;2023-06-14T03:23:08;16.60;78.30
52113;DHT22;38109;49.488;31.988;2023-06-14T03:25:34;16.70;78.50
52113;DHT22;38109;49.488;31.988;2023-06-14T03:28:06;16.70;78.50
52113;DHT22;38109;49.488;31.988;2023-06-14T03:30:32;16.70;78.50
52113;DHT22;38109;49.488;31.988;2023-06-14T03:32:58;16.80;78.60
52113;DHT22;38109;49.488;31.988;2023-06-14T03:35:27;16.80;78.70
52113;DHT22;38109;49.488;31.988;2023-06-14T03:37:53;16.90;78.70
52113;DHT22;38109;49.488;31.988;2023-06-14T03:40:19;16.90;78.70
52113;DHT22;38109;49.488;31.988;2023-06-14T03:42:45;17.00;78.60
52113;DHT22;38109;49.488;31.988;2023-06-14T03:45:11;17.00;78.60
52113;DHT22;38109;49.488;31.988;2023-06-14T03:47:36;17.10;78.60
52113;DHT22;38109;49.488;31.988;2023-06-14T03:50:03;17.10;78.50
52113;DHT22;38109;49.488;31.988;2023-06-14T03:52:29;17.20;78.50
52113;DHT22;38109;49.488;31.988;2023-06-14T03:54:55;17.20;78.30
52113;DHT22;38109;49.488;31.988;2023-06-14T03:57:23;17.20;78.20
52113;DHT22;38109;49.488;31.988;2023-06-14T03:59:49;17.30;78.30
52113;DHT22;38109;49.488;31.988;2023-06-14T04:02:15;17.30;78.30
52113;DHT22;38109;49.488;31.988;2023-06-14T04:04:42;17.40;78.30
52113;DHT22;38109;49.488;31.988;2023-06-14T04:07:12;17.40;78.30
52113;DHT22;38109;49.488;31.988;2023-06-14T04:09:39;17.40;78.20
52113;DHT22;38109;49.488;31.988;2023-06-14T04:12:05;17.40;78.20
52113;DHT22;38109;49.488;31.988;2023-06-14T04:14:31;17.50;78.10
52113;DHT22;38109;49.488;31.988;2023-06-14T04:16:58;17.50;78.00
52113;DHT22;38109;49.488;31.988;2023-06-14T04:19:24;17.60;78.00
52113;DHT22;38109;49.488;31.988;2023-06-14T04:21:50;17.60;77.90
52113;DHT22;38109;49.488;31.988;2023-06-14T04:24:16;17.70;77.90
52113;DHT22;38109;49.488;31.988;2023-06-14T04:26:43;17.70;77.80
52113;DHT22;38109;49.488;31.988;2023-06-14T04:29:14;17.70;77.80
52113;DHT22;38109;49.488;31.988;2023-06-14T04:31:42;17.80;77.80
52113;DHT22;38109;49.488;31.988;2023-06-14T04:34:07;17.80;77.70
52113;DHT22;38109;49.488;31.988;2023-06-14T04:36:34;17.80;77.70
52113;DHT22;38109;49.488;31.988;2023-06-14T04:39:02;17.90;77.80
52113;DHT22;38109;49.488;31.988;2023-06-14T04:41:30;17.90;77.60
52113;DHT22;38109;49.488;31.988;2023-06-14T04:44:00;17.90;77.60
52113;DHT22;38109;49.488;31.988;2023-06-14T04:46:28;17.90;77.50
52113;DHT22;38109;49.488;31.988;2023-06-14T04:48:54;18.00;77.50
52113;DHT22;38109;49.488;31.988;2023-06-14T04:51:20;18.00;77.50
52113;DHT22;38109;49.488;31.988;2023-06-14T04:53:57;18.00;77.50
52113;DHT22;38109;49.488;31.988;2023-06-14T04:56:24;18.10;77.50
52113;DHT22;38109;49.488;31.988;2023-06-14T04:58:50;18.10;77.50
52113;DHT22;38109;49.488;31.988;2023-06-14T05:01:16;18.20;77.40
52113;DHT22;38109;49.488;31.988;2023-06-14T05:03:42;18.20;77.50
52113;DHT22;38109;49.488;31.988;2023-06-14T05:06:10;18.20;77.50
52113;DHT22;38109;49.488;31.988;2023-06-14T05:08:37;18.20;77.40
52113;DHT22;38109;49.488;31.988;2023-06-14T05:11:02;18.30;77.40
52113;DHT22;38109;49.488;31.988;2023-06-14T05:13:28;18.30;77.40
52113;DHT22;38109;49.488;31.988;2023-06-14T05:15:54;18.30;77.30
52113;DHT22;38109;49.488;31.988;2023-06-14T05:18:19;18.30;77.20
52113;DHT22;38109;49.488;31.988;2023-06-14T05:20:45;18.40;77.20
52113;DHT22;38109;49.488;31.988;2023-06-14T05:23:11;18.40;77.10
52113;DHT22;38109;49.488;31.988;2023-06-14T05:25:45;18.40;77.00
52113;DHT22;38109;49.488;31.988;2023-06-14T05:28:11;18.50;77.00
52113;DHT22;38109;49.488;31.988;2023-06-14T05:30:38;18.50;76.90
52113;DHT22;38109;49.488;31.988;2023-06-14T05:33:05;18.50;76.90
52113;DHT22;38109;49.488;31.988;2023-06-14T05:35:30;18.50;76.80
52113;DHT22;38109;49.488;31.988;2023-06-14T05:37:56;18.60;76.80
52113;DHT22;38109;49.488;31.988;2023-06-14T05:40:22;18.60;76.80
52113;DHT22;38109;49.488;31.988;2023-06-14T05:42:47;18.60;76.80
52113;DHT22;38109;49.488;31.988;2023-06-14T05:45:13;18.60;76.80
52113;DHT22;38109;49.488;31.988;2023-06-14T05:47:41;18.70;76.80
52113;DHT22;38109;49.488;31.988;2023-06-14T05:50:07;18.70;76.70
52113;DHT22;38109;49.488;31.988;2023-06-14T05:52:34;18.80;76.70
52113;DHT22;38109;49.488;31.988;2023-06-14T05:55:01;18.80;76.70
52113;DHT22;38109;49.488;31.988;2023-06-14T05:57:26;18.90;76.60
52113;DHT22;38109;49.488;31.988;2023-06-14T05:59:52;18.90;76.60
52113;DHT22;38109;49.488;31.988;2023-06-14T06:02:18;18.90;76.40
52113;DHT22;38109;49.488;31.988;2023-06-14T06:04:44;19.00;76.40
52113;DHT22;38109;49.488;31.988;2023-06-14T06:07:09;19.00;76.20
52113;DHT22;38109;49.488;31.988;2023-06-14T06:09:35;19.10;76.30
52113;DHT22;38109;49.488;31.988;2023-06-14T06:12:01;19.10;76.20
52113;DHT22;38109;49.488;31.988;2023-06-14T06:14:26;19.20;76.20
52113;DHT22;38109;49.488;31.988;2023-06-14T06:16:53;19.20;76.10
52113;DHT22;38109;49.488;31.988;2023-06-14T06:19:19;19.30;76.00
52113;DHT22;38109;49.488;31.988;2023-06-14T06:21:44;19.30;76.00
52113;DHT22;38109;49.488;31.988;2023-06-14T06:24:10;19.40;75.90
52113;DHT22;38109;49.488;31.988;2023-06-14T06:26:35;19.40;75.80
52113;DHT22;38109;49.488;31.988;2023-06-14T06:29:01;19.50;75.70
52113;DHT22;38109;49.488;31.988;2023-06-14T06:31:27;19.50;75.50
52113;DHT22;38109;49.488;31.988;2023-06-14T06:33:54;19.60;75.50
52113;DHT22;38109;49.488;31.988;2023-06-14T06:36:20;19.60;75.40
52113;DHT22;38109;49.488;31.988;2023-06-14T06:38:47;19.60;75.40
52113;DHT22;38109;49.488;31.988;2023-06-14T06:41:13;19.70;75.40
52113;DHT22;38109;49.488;31.988;2023-06-14T06:43:38;19.70;75.30
52113;DHT22;38109;49.488;31.988;2023-06-14T06:46:04;19.80;75.20
52113;DHT22;38109;49.488;31.988;2023-06-14T06:48:30;19.80;75.20
52113;DHT22;38109;49.488;31.988;2023-06-14T06:50:56;19.90;75.10
52113;DHT22;38109;49.488;31.988;2023-06-14T06:53:21;20.00;75.00
52113;DHT22;38109;49.488;31.988;2023-06-14T06:55:48;20.00;74.90
52113;DHT22;38109;49.488;31.988;2023-06-14T06:58:13;20.00;74.80
52113;DHT22;38109;49.488;31.988;2023-06-14T07:00:39;20.10;74.80
52113;DHT22;38109;49.488;31.988;2023-06-14T07:03:05;20.10;74.70
52113;DHT22;38109;49.488;31.988;2023-06-14T07:05:31;20.10;74.50
52113;DHT22;38109;49.488;31.988;2023-06-14T07:07:57;20.10;74.40
52113;DHT22;38109;49.488;31.988;2023-06-14T07:10:23;20.20;74.30
52113;DHT22;38109;49.488;31.988;2023-06-14T07:12:52;20.20;74.20
52113;DHT22;38109;49.488;31.988;2023-06-14T07:15:18;20.30;74.20
52113;DHT22;38109;49.488;31.988;2023-06-14T07:17:44;20.30;74.00
52113;DHT22;38109;49.488;31.988;2023-06-14T07:20:10;20.40;74.00
52113;DHT22;38109;49.488;31.988;2023-06-14T07:22:42;20.40;74.00
52113;DHT22;38109;49.488;31.988;2023-06-14T07:25:09;20.40;73.80
52113;DHT22;38109;49.488;31.988;2023-06-14T07:27:37;20.50;73.70
52113;DHT22;38109;49.488;31.988;2023-06-14T07:30:03;20.60;73.60
52113;DHT22;38109;49.488;31.988;2023-06-14T07:32:30;20.60;73.60
52113;DHT22;38109;49.488;31.988;2023-06-14T07:34:55;20.70;73.60
52113;DHT22;38109;49.488;31.988;2023-06-14T07:37:21;20.70;73.50
52113;DHT22;38109;49.488;31.988;2023-06-14T07:39:47;20.80;73.50
52113;DHT22;38109;49.488;31.988;2023-06-14T07:42:12;20.90;73.50
52113;DHT22;38109;49.488;31.988;2023-06-14T07:44:38;20.90;73.40
52113;DHT22;38109;49.488;31.988;2023-06-14T07:47:04;21.00;73.20
52113;DHT22;38109;49.488;31.988;2023-06-14T07:49:30;21.00;72.90
52113;DHT22;38109;49.488;31.988;2023-06-14T07:51:56;21.00;72.90
52113;DHT22;38109;49.488;31.988;2023-06-14T07:54:21;21.10;73.00
52113;DHT22;38109;49.488;31.988;2023-06-14T07:56:51;21.10;73.10
52113;DHT22;38109;49.488;31.988;2023-06-14T07:59:17;21.20;73.00
52113;DHT22;38109;49.488;31.988;2023-06-14T08:01:43;21.20;73.00
52113;DHT22;38109;49.488;31.988;2023-06-14T08:04:13;21.30;72.80
52113;DHT22;38109;49.488;31.988;2023-06-14T08:06:39;21.40;72.80
52113;DHT22;38109;49.488;31.988;2023-06-14T08:09:05;21.40;72.70
52113;DHT22;38109;49.488;31.988;2023-06-14T08:11:31;21.40;72.70
52113;DHT22;38109;49.488;31.988;2023-06-14T08:13:57;21.50;72.70
52113;DHT22;38109;49.488;31.988;2023-06-14T08:16:22;21.60;72.60
52113;DHT22;38109;49.488;31.988;2023-06-14T08:18:48;21.60;72.50
52113;DHT22;38109;49.488;31.988;2023-06-14T08:21:14;21.70;72.00
52113;DHT22;38109;49.488;31.988;2023-06-14T08:23:40;21.70;72.00
52113;DHT22;38109;49.488;31.988;2023-06-14T08:26:08;21.80;72.10
52113;DHT22;38109;49.488;31.988;2023-06-14T08:28:34;21.80;72.00
52113;DHT22;38109;49.488;31.988;2023-06-14T08:31:00;21.80;72.00
52113;DHT22;38109;49.488;31.988;2023-06-14T08:33:25;21.90;71.90
52113;DHT22;38109;49.488;31.988;2023-06-14T08:35:51;22.00;71.90
52113;DHT22;38109;49.488;31.988;2023-06-14T08:38:17;22.00;71.80
52113;DHT22;38109;49.488;31.988;2023-06-14T08:40:42;22.00;71.50
52113;DHT22;38109;49.488;31.988;2023-06-14T08:43:08;22.10;71.50
52113;DHT22;38109;49.488;31.988;2023-06-14T08:45:34;22.10;71.40
52113;DHT22;38109;49.488;31.988;2023-06-14T08:48:00;22.20;71.30
52113;DHT22;38109;49.488;31.988;2023-06-14T08:50:27;22.30;71.20
52113;DHT22;38109;49.488;31.988;2023-06-14T08:52:58;22.30;71.20
52113;DHT22;38109;49.488;31.988;2023-06-14T08:55:28;22.40;71.20
52113;DHT22;38109;49.488;31.988;2023-06-14T08:57:56;22.50;70.70
52113;DHT22;38109;49.488;31.988;2023-06-14T09:00:26;22.50;70.70
52113;DHT22;38109;49.488;31.988;2023-06-14T09:02:53;22.50;70.60
52113;DHT22;38109;49.488;31.988;2023-06-14T09:05:26;22.60;70.60
52113;DHT22;38109;49.488;31.988;2023-06-14T09:07:52;22.60;70.20
52113;DHT22;38109;49.488;31.988;2023-06-14T09:10:18;22.70;70.30
52113;DHT22;38109;49.488;31.988;2023-06-14T09:12:44;22.70;70.30
52113;DHT22;38109;49.488;31.988;2023-06-14T09:15:10;22.80;70.20
52113;DHT22;38109;49.488;31.988;2023-06-14T09:17:36;22.80;70.00
52113;DHT22;38109;49.488;31.988;2023-06-14T09:20:03;22.90;70.10
52113;DHT22;38109;49.488;31.988;2023-06-14T09:22:34;22.90;69.90
52113;DHT22;38109;49.488;31.988;2023-06-14T09:25:00;22.90;69.50
52113;DHT22;38109;49.488;31.988;2023-06-14T09:27:29;22.90;69.40
52113;DHT22;38109;49.488;31.988;2023-06-14T09:29:55;23.00;69.40
52113;DHT22;38109;49.488;31.988;2023-06-14T09:32:25;23.00;69.20
52113;DHT22;38109;49.488;31.988;2023-06-14T09:34:50;23.10;69.20
52113;DHT22;38109;49.488;31.988;2023-06-14T09:37:30;23.10;69.10
52113;DHT22;38109;49.488;31.988;2023-06-14T09:39:56;23.10;68.90
52113;DHT22;38109;49.488;31.988;2023-06-14T09:42:22;23.10;68.70
52113;DHT22;38109;49.488;31.988;2023-06-14T09:44:52;23.20;68.70
52113;DHT22;38109;49.488;31.988;2023-06-14T09:47:19;23.30;68.60
52113;DHT22;38109;49.488;31.988;2023-06-14T09:49:45;23.30;68.00
52113;DHT22;38109;49.488;31.988;2023-06-14T09:52:14;23.30;68.10
52113;DHT22;38109;49.488;31.988;2023-06-14T09:54:42;23.40;68.10
52113;DHT22;38109;49.488;31.988;2023-06-14T09:57:13;23.40;68.10
52113;DHT22;38109;49.488;31.988;2023-06-14T09:59:46;23.50;67.70
52113;DHT22;38109;49.488;31.988;2023-06-14T10:02:24;23.50;67.70
52113;DHT22;38109;49.488;31.988;2023-06-14T10:05:01;23.50;67.80
52113;DHT22;38109;49.488;31.988;2023-06-14T10:07:35;23.60;67.70
52113;DHT22;38109;49.488;31.988;2023-06-14T10:10:04;23.70;67.80
52113;DHT22;38109;49.488;31.988;2023-06-14T10:12:31;23.70;67.80
52113;DHT22;38109;49.488;31.988;2023-06-14T10:14:57;23.70;67.80
52113;DHT22;38109;49.488;31.988;2023-06-14T10:17:43;23.80;67.80
52113;DHT22;38109;49.488;31.988;2023-06-14T10:20:38;23.90;67.90
52113;DHT22;38109;49.488;31.988;2023-06-14T10:23:16;23.90;67.40
52113;DHT22;38109;49.488;31.988;2023-06-14T10:25:43;23.90;67.60
52113;DHT22;38109;49.488;31.988;2023-06-14T10:28:21;24.00;67.50
52113;DHT22;38109;49.488;31.988;2023-06-14T10:31:10;24.00;67.40
52113;DHT22;38109;49.488;31.988;2023-06-14T10:33:48;24.00;67.00
52113;DHT22;38109;49.488;31.988;2023-06-14T10:57:10;24.20;64.90
52113;DHT22;38109;49.488;31.988;2023-06-14T11:11:00;24.40;64.40
52113;DHT22;38109;49.488;31.988;2023-06-14T11:13:31;24.40;64.20
52113;DHT22;38109;49.488;31.988;2023-06-14T11:15:56;24.50;64.30
52113;DHT22;38109;49.488;31.988;2023-06-14T11:18:23;24.50;64.30
52113;DHT22;38109;49.488;31.988;2023-06-14T11:20:55;24.60;64.30
52113;DHT22;38109;49.488;31.988;2023-06-14T11:23:21;24.60;64.10
52113;DHT22;38109;49.488;31.988;2023-06-14T11:25:51;24.60;63.60
52113;DHT22;38109;49.488;31.988;2023-06-14T11:28:17;24.70;63.40
52113;DHT22;38109;49.488;31.988;2023-06-14T11:30:45;24.70;63.40
52113;DHT22;38109;49.488;31.988;2023-06-14T11:33:17;24.70;63.30
52113;DHT22;38109;49.488;31.988;2023-06-14T11:35:44;24.80;63.20
52113;DHT22;38109;49.488;31.988;2023-06-14T11:38:11;24.80;62.80
52113;DHT22;38109;49.488;31.988;2023-06-14T11:40:38;24.80;62.90
52113;DHT22;38109;49.488;31.988;2023-06-14T11:43:04;24.90;62.70
52113;DHT22;38109;49.488;31.988;2023-06-14T11:45:31;24.90;62.70
52113;DHT22;38109;49.488;31.988;2023-06-14T11:47:57;25.00;62.20
52113;DHT22;38109;49.488;31.988;2023-06-14T11:50:23;24.90;61.80
52113;DHT22;38109;49.488;31.988;2023-06-14T11:52:57;25.00;62.00
52113;DHT22;38109;49.488;31.988;2023-06-14T11:55:25;25.00;62.20
52113;DHT22;38109;49.488;31.988;2023-06-14T11:57:53;25.00;62.10
52113;DHT22;38109;49.488;31.988;2023-06-14T12:00:25;25.00;61.90
52113;DHT22;38109;49.488;31.988;2023-06-14T12:02:54;25.00;62.00
52113;DHT22;38109;49.488;31.988;2023-06-14T12:05:22;25.10;61.90
52113;DHT22;38109;49.488;31.988;2023-06-14T12:07:49;25.10;61.60
52113;DHT22;38109;49.488;31.988;2023-06-14T12:10:16;25.10;61.70
52113;DHT22;38109;49.488;31.988;2023-06-14T12:12:42;25.10;61.40
52113;DHT22;38109;49.488;31.988;2023-06-14T12:15:09;25.20;61.40
52113;DHT22;38109;49.488;31.988;2023-06-14T12:17:37;25.20;61.60
52113;DHT22;38109;49.488;31.988;2023-06-14T12:20:08;25.20;61.40
52113;DHT22;38109;49.488;31.988;2023-06-14T12:29:28;25.30;60.80
52113;DHT22;38109;49.488;31.988;2023-06-14T12:31:53;25.30;60.70
52113;DHT22;38109;49.488;31.988;2023-06-14T12:34:28;25.40;60.20
52113;DHT22;38109;49.488;31.988;2023-06-14T12:36:56;25.40;60.30
52113;DHT22;38109;49.488;31.988;2023-06-14T12:42:44;25.40;59.90
52113;DHT22;38109;49.488;31.988;2023-06-14T12:48:53;25.40;59.60
52113;DHT22;38109;49.488;31.988;2023-06-14T12:51:19;25.40;60.10
52113;DHT22;38109;49.488;31.988;2023-06-14T12:53:44;25.40;59.80
52113;DHT22;38109;49.488;31.988;2023-06-14T13:03:10;25.50;59.30
52113;DHT22;38109;49.488;31.988;2023-06-14T13:15:29;25.70;57.20
52113;DHT22;38109;49.488;31.988;2023-06-14T13:21:16;25.70;58.40
52113;DHT22;38109;49.488;31.988;2023-06-14T13:23:42;25.80;59.20
52113;DHT22;38109;49.488;31.988;2023-06-14T13:26:07;25.80;58.90
52113;DHT22;38109;49.488;31.988;2023-06-14T13:28:34;25.80;59.30
52113;DHT22;38109;49.488;31.988;2023-06-14T13:31:00;25.80;59.60
52113;DHT22;38109;49.488;31.988;2023-06-14T13:33:26;25.80;59.60
52113;DHT22;38109;49.488;31.988;2023-06-14T13:35:52;25.90;59.80
52113;DHT22;38109;49.488;31.988;2023-06-14T13:38:18;25.90;59.60
52113;DHT22;38109;49.488;31.988;2023-06-14T13:40:44;25.90;59.60
52113;DHT22;38109;49.488;31.988;2023-06-14T13:43:10;25.90;60.10
52113;DHT22;38109;49.488;31.988;2023-06-14T13:45:35;25.90;59.80
52113;DHT22;38109;49.488;31.988;2023-06-14T13:48:01;25.80;59.90
52113;DHT22;38109;49.488;31.988;2023-06-14T13:50:27;25.80;60.10
52113;DHT22;38109;49.488;31.988;2023-06-14T13:52:53;25.80;60.10
52113;DHT22;38109;49.488;31.988;2023-06-14T13:55:18;25.80;60.20
52113;DHT22;38109;49.488;31.988;2023-06-14T13:57:44;25.80;60.60
52113;DHT22;38109;49.488;31.988;2023-06-14T14:00:11;25.80;60.50
52113;DHT22;38109;49.488;31.988;2023-06-14T14:02:37;25.80;60.70
52113;DHT22;38109;49.488;31.988;2023-06-14T14:05:05;25.80;60.60
52113;DHT22;38109;49.488;31.988;2023-06-14T14:07:31;25.80;60.50
52113;DHT22;38109;49.488;31.988;2023-06-14T14:09:56;25.80;60.80
52113;DHT22;38109;49.488;31.988;2023-06-14T14:12:23;25.80;60.90
52113;DHT22;38109;49.488;31.988;2023-06-14T14:14:49;25.80;61.00
52113;DHT22;38109;49.488;31.988;2023-06-14T14:17:15;25.70;61.20
52113;DHT22;38109;49.488;31.988;2023-06-14T14:19:41;25.80;61.10
52113;DHT22;38109;49.488;31.988;2023-06-14T14:22:07;25.70;61.30
52113;DHT22;38109;49.488;31.988;2023-06-14T14:24:32;25.70;61.30
52113;DHT22;38109;49.488;31.988;2023-06-14T14:26:58;25.70;61.20
52113;DHT22;38109;49.488;31.988;2023-06-14T14:29:25;25.70;61.10
52113;DHT22;38109;49.488;31.988;2023-06-14T14:31:54;25.60;61.00
52113;DHT22;38109;49.488;31.988;2023-06-14T14:34:21;25.60;61.00
52113;DHT22;38109;49.488;31.988;2023-06-14T14:36:47;25.60;61.00
52113;DHT22;38109;49.488;31.988;2023-06-14T14:39:12;25.50;60.80
52113;DHT22;38109;49.488;31.988;2023-06-14T14:41:38;25.50;60.70
52113;DHT22;38109;49.488;31.988;2023-06-14T14:44:05;25.40;60.80
52113;DHT22;38109;49.488;31.988;2023-06-14T14:46:31;25.40;61.00
52113;DHT22;38109;49.488;31.988;2023-06-14T14:48:58;25.30;60.90
52113;DHT22;38109;49.488;31.988;2023-06-14T14:51:23;25.30;60.90
52113;DHT22;38109;49.488;31.988;2023-06-14T14:53:49;25.20;61.10
52113;DHT22;38109;49.488;31.988;2023-06-14T14:56:15;25.20;61.00
52113;DHT22;38109;49.488;31.988;2023-06-14T14:58:40;25.10;61.20
52113;DHT22;38109;49.488;31.988;2023-06-14T15:01:06;25.10;61.10
52113;DHT22;38109;49.488;31.988;2023-06-14T15:03:32;25.10;61.20
52113;DHT22;38109;49.488;31.988;2023-06-14T15:05:58;25.00;61.30
52113;DHT22;38109;49.488;31.988;2023-06-14T15:08:23;25.00;61.40
52113;DHT22;38109;49.488;31.988;2023-06-14T15:10:49;25.00;61.50
52113;DHT22;38109;49.488;31.988;2023-06-14T15:13:15;24.90;61.40
52113;DHT22;38109;49.488;31.988;2023-06-14T15:15:41;24.90;61.60
52113;DHT22;38109;49.488;31.988;2023-06-14T15:18:06;24.80;61.60
52113;DHT22;38109;49.488;31.988;2023-06-14T15:20:32;24.80;61.60
52113;DHT22;38109;49.488;31.988;2023-06-14T15:22:58;24.80;61.60
52113;DHT22;38109;49.488;31.988;2023-06-14T15:25:27;24.80;61.70
52113;DHT22;38109;49.488;31.988;2023-06-14T15:27:53;24.80;61.80
52113;DHT22;38109;49.488;31.988;2023-06-14T15:30:19;24.70;62.10
52113;DHT22;38109;49.488;31.988;2023-06-14T15:32:44;24.70;62.00
52113;DHT22;38109;49.488;31.988;2023-06-14T15:35:10;24.70;62.10
52113;DHT22;38109;49.488;31.988;2023-06-14T15:37:37;24.60;62.10
52113;DHT22;38109;49.488;31.988;2023-06-14T15:40:04;24.60;62.20
52113;DHT22;38109;49.488;31.988;2023-06-14T15:42:30;24.60;62.30
52113;DHT22;38109;49.488;31.988;2023-06-14T15:44:56;24.60;62.30
52113;DHT22;38109;49.488;31.988;2023-06-14T15:47:21;24.60;62.30
52113;DHT22;38109;49.488;31.988;2023-06-14T15:49:47;24.50;62.30
52113;DHT22;38109;49.488;31.988;2023-06-14T15:52:13;24.50;62.40
52113;DHT22;38109;49.488;31.988;2023-06-14T15:54:38;24.60;62.60
52113;DHT22;38109;49.488;31.988;2023-06-14T15:57:04;24.50;62.50
52113;DHT22;38109;49.488;31.988;2023-06-14T15:59:30;24.50;62.50
52113;DHT22;38109;49.488;31.988;2023-06-14T16:01:55;24.50;62.60
52113;DHT22;38109;49.488;31.988;2023-06-14T16:04:21;24.40;62.70
52113;DHT22;38109;49.488;31.988;2023-06-14T16:07:05;24.40;62.70
52113;DHT22;38109;49.488;31.988;2023-06-14T16:10:04;24.40;62.70
52113;DHT22;38109;49.488;31.988;2023-06-14T16:12:30;24.40;62.80
52113;DHT22;38109;49.488;31.988;2023-06-14T16:14:56;24.40;63.00
52113;DHT22;38109;49.488;31.988;2023-06-14T16:17:21;24.40;63.30
52113;DHT22;38109;49.488;31.988;2023-06-14T16:19:48;24.30;63.20
52113;DHT22;38109;49.488;31.988;2023-06-14T16:22:14;24.30;63.30